sensor_id;sensor_type;location;lat;lon;timestamp;P1;durP1;ratioP1;P2;durP2;ratioP2
12719;SDS011;6424;48.520;11.228;2023-06-10T00:02:27;8.00;;;7.20;;
12719;SDS011;6424;48.520;11.228;2023-06-10T00:05:08;7.87;;;7.17;;
12719;SDS011;6424;48.520;11.228;2023-06-10T00:07:49;9.13;;;7.80;;
12719;SDS011;6424;48.520;11.228;2023-06-10T00:10:30;8.50;;;7.70;;
12719;SDS011;6424;48.520;11.228;2023-06-10T00:13:11;8.23;;;7.50;;
12719;SDS011;6424;48.520;11.228;2023-06-10T00:15:52;9.27;;;7.47;;
12719;SDS011;6424;48.520;11.228;2023-06-10T00:18:33;9.30;;;8.40;;
12719;SDS011;6424;48.520;11.228;2023-06-10T00:21:17;8.80;;;8.00;;
12719;SDS011;6424;48.520;11.228;2023-06-10T00:23:59;8.33;;;7.53;;
12719;SDS011;6424;48.520;11.228;2023-06-10T00:26:43;8.60;;;7.90;;
12719;SDS011;6424;48.520;11.228;2023-06-10T00:29:24;8.90;;;8.10;;
12719;SDS011;6424;48.520;11.228;2023-06-10T00:32:04;8.63;;;7.73;;
12719;SDS011;6424;48.520;11.228;2023-06-10T00:34:46;8.80;;;7.90;;
12719;SDS011;6424;48.520;11.228;2023-06-10T00:37:26;8.53;;;7.73;;
12719;SDS011;6424;48.520;11.228;2023-06-10T00:40:09;9.50;;;8.60;;
12719;SDS011;6424;48.520;11.228;2023-06-10T00:42:50;8.53;;;7.83;;
12719;SDS011;6424;48.520;11.228;2023-06-10T00:45:31;9.07;;;8.27;;
12719;SDS011;6424;48.520;11.228;2023-06-10T00:48:12;8.67;;;7.87;;
12719;SDS011;6424;48.520;11.228;2023-06-10T00:50:53;9.70;;;8.80;;
12719;SDS011;6424;48.520;11.228;2023-06-10T00:53:39;9.67;;;8.03;;
12719;SDS011;6424;48.520;11.228;2023-06-10T00:56:21;8.53;;;7.83;;
12719;SDS011;6424;48.520;11.228;2023-06-10T00:59:02;9.70;;;8.43;;
12719;SDS011;6424;48.520;11.228;2023-06-10T01:01:43;9.00;;;8.20;;
12719;SDS011;6424;48.520;11.228;2023-06-10T01:04:27;9.10;;;8.30;;
12719;SDS011;6424;48.520;11.228;2023-06-10T01:13:06;8.83;;;7.93;;
12719;SDS011;6424;48.520;11.228;2023-06-10T01:15:36;10.60;;;8.30;;
12719;SDS011;6424;48.520;11.228;2023-06-10T01:18:18;8.97;;;8.17;;
12719;SDS011;6424;48.520;11.228;2023-06-10T01:20:59;9.27;;;7.60;;
12719;SDS011;6424;48.520;11.228;2023-06-10T01:23:40;8.53;;;7.83;;
12719;SDS011;6424;48.520;11.228;2023-06-10T01:26:22;8.87;;;7.97;;
12719;SDS011;6424;48.520;11.228;2023-06-10T01:29:07;9.87;;;8.97;;
12719;SDS011;6424;48.520;11.228;2023-06-10T01:32:12;9.07;;;8.17;;
12719;SDS011;6424;48.520;11.228;2023-06-10T01:34:58;8.50;;;7.70;;
12719;SDS011;6424;48.520;11.228;2023-06-10T01:37:41;8.73;;;7.90;;
12719;SDS011;6424;48.520;11.228;2023-06-10T01:40:25;9.23;;;8.37;;
12719;SDS011;6424;48.520;11.228;2023-06-10T01:43:08;9.40;;;8.60;;
12719;SDS011;6424;48.520;11.228;2023-06-10T01:45:48;8.37;;;7.67;;
12719;SDS011;6424;48.520;11.228;2023-06-10T01:48:29;8.87;;;8.13;;
12719;SDS011;6424;48.520;11.228;2023-06-10T01:51:10;8.60;;;7.80;;
12719;SDS011;6424;48.520;11.228;2023-06-10T01:53:51;8.50;;;7.70;;
12719;SDS011;6424;48.520;11.228;2023-06-10T01:56:32;8.73;;;7.93;;
12719;SDS011;6424;48.520;11.228;2023-06-10T01:59:13;9.00;;;8.20;;
12719;SDS011;6424;48.520;11.228;2023-06-10T02:01:54;8.50;;;7.70;;
12719;SDS011;6424;48.520;11.228;2023-06-10T02:04:35;9.23;;;8.20;;
12719;SDS011;6424;48.520;11.228;2023-06-10T02:07:00;8.33;;;7.37;;
12719;SDS011;6424;48.520;11.228;2023-06-10T02:09:29;9.67;;;7.93;;
12719;SDS011;6424;48.520;11.228;2023-06-10T02:11:55;9.20;;;8.30;;
12719;SDS011;6424;48.520;11.228;2023-06-10T02:14:36;8.47;;;7.73;;
12719;SDS011;6424;48.520;11.228;2023-06-10T02:17:01;8.50;;;7.70;;
12719;SDS011;6424;48.520;11.228;2023-06-10T02:19:42;8.83;;;7.93;;
12719;SDS011;6424;48.520;11.228;2023-06-10T02:22:23;8.97;;;8.00;;
12719;SDS011;6424;48.520;11.228;2023-06-10T02:25:04;9.53;;;8.50;;
12719;SDS011;6424;48.520;11.228;2023-06-10T02:27:46;10.37;;;7.83;;
12719;SDS011;6424;48.520;11.228;2023-06-10T02:30:26;8.60;;;7.70;;
12719;SDS011;6424;48.520;11.228;2023-06-10T02:33:07;9.23;;;8.43;;
12719;SDS011;6424;48.520;11.228;2023-06-10T02:35:51;8.90;;;8.10;;
12719;SDS011;6424;48.520;11.228;2023-06-10T02:38:17;9.50;;;8.57;;
12719;SDS011;6424;48.520;11.228;2023-06-10T02:40:58;9.40;;;8.57;;
12719;SDS011;6424;48.520;11.228;2023-06-10T02:43:24;8.47;;;7.67;;
12719;SDS011;6424;48.520;11.228;2023-06-10T02:46:04;9.50;;;8.70;;
12719;SDS011;6424;48.520;11.228;2023-06-10T02:48:45;9.67;;;8.77;;
12719;SDS011;6424;48.520;11.228;2023-06-10T02:51:26;9.27;;;8.43;;
12719;SDS011;6424;48.520;11.228;2023-06-10T02:54:07;9.73;;;8.73;;
12719;SDS011;6424;48.520;11.228;2023-06-10T02:56:48;9.20;;;8.40;;
12719;SDS011;6424;48.520;11.228;2023-06-10T02:59:29;9.70;;;8.80;;
12719;SDS011;6424;48.520;11.228;2023-06-10T03:01:55;10.00;;;9.10;;
12719;SDS011;6424;48.520;11.228;2023-06-10T03:04:35;10.43;;;9.43;;
12719;SDS011;6424;48.520;11.228;2023-06-10T03:07:17;10.17;;;9.27;;
12719;SDS011;6424;48.520;11.228;2023-06-10T03:10:00;10.00;;;9.00;;
12719;SDS011;6424;48.520;11.228;2023-06-10T03:12:41;10.00;;;9.00;;
12719;SDS011;6424;48.520;11.228;2023-06-10T03:15:22;9.90;;;8.90;;
12719;SDS011;6424;48.520;11.228;2023-06-10T03:18:04;9.03;;;8.13;;
12719;SDS011;6424;48.520;11.228;2023-06-10T03:20:31;11.20;;;8.97;;
12719;SDS011;6424;48.520;11.228;2023-06-10T03:23:17;10.10;;;8.93;;
12719;SDS011;6424;48.520;11.228;2023-06-10T03:25:58;9.90;;;8.97;;
12719;SDS011;6424;48.520;11.228;2023-06-10T03:28:40;9.47;;;8.57;;
12719;SDS011;6424;48.520;11.228;2023-06-10T03:31:21;9.70;;;8.80;;
12719;SDS011;6424;48.520;11.228;2023-06-10T03:34:02;10.30;;;9.13;;
12719;SDS011;6424;48.520;11.228;2023-06-10T03:36:42;10.07;;;9.10;;
12719;SDS011;6424;48.520;11.228;2023-06-10T03:39:23;10.07;;;9.17;;
12719;SDS011;6424;48.520;11.228;2023-06-10T03:42:05;11.23;;;8.97;;
12719;SDS011;6424;48.520;11.228;2023-06-10T03:44:46;10.10;;;9.20;;
12719;SDS011;6424;48.520;11.228;2023-06-10T03:47:32;9.43;;;8.63;;
12719;SDS011;6424;48.520;11.228;2023-06-10T03:50:17;9.70;;;8.70;;
12719;SDS011;6424;48.520;11.228;2023-06-10T03:52:57;9.23;;;8.33;;
12719;SDS011;6424;48.520;11.228;2023-06-10T03:55:38;8.53;;;7.83;;
12719;SDS011;6424;48.520;11.228;2023-06-10T03:58:19;9.43;;;8.63;;
12719;SDS011;6424;48.520;11.228;2023-06-10T04:01:00;11.60;;;9.80;;
12719;SDS011;6424;48.520;11.228;2023-06-10T04:03:41;9.73;;;8.83;;
12719;SDS011;6424;48.520;11.228;2023-06-10T04:06:23;12.23;;;9.60;;
12719;SDS011;6424;48.520;11.228;2023-06-10T04:09:05;10.03;;;9.13;;
12719;SDS011;6424;48.520;11.228;2023-06-10T04:11:31;9.53;;;8.73;;
12719;SDS011;6424;48.520;11.228;2023-06-10T04:14:12;8.93;;;7.90;;
12719;SDS011;6424;48.520;11.228;2023-06-10T04:16:53;9.73;;;7.97;;
12719;SDS011;6424;48.520;11.228;2023-06-10T04:19:19;8.13;;;7.43;;
12719;SDS011;6424;48.520;11.228;2023-06-10T04:22:01;11.00;;;7.13;;
12719;SDS011;6424;48.520;11.228;2023-06-10T04:24:43;8.30;;;7.57;;
12719;SDS011;6424;48.520;11.228;2023-06-10T04:27:24;8.33;;;7.63;;
12719;SDS011;6424;48.520;11.228;2023-06-10T04:30:05;8.20;;;7.40;;
12719;SDS011;6424;48.520;11.228;2023-06-10T04:32:47;8.13;;;6.80;;
12719;SDS011;6424;48.520;11.228;2023-06-10T04:35:28;8.33;;;7.40;;
12719;SDS011;6424;48.520;11.228;2023-06-10T04:38:08;7.40;;;6.80;;
12719;SDS011;6424;48.520;11.228;2023-06-10T04:40:49;7.87;;;7.17;;
12719;SDS011;6424;48.520;11.228;2023-06-10T04:43:30;7.27;;;6.70;;
12719;SDS011;6424;48.520;11.228;2023-06-10T04:46:11;7.27;;;6.67;;
12719;SDS011;6424;48.520;11.228;2023-06-10T04:48:53;7.33;;;6.73;;
12719;SDS011;6424;48.520;11.228;2023-06-10T04:51:34;6.40;;;5.90;;
12719;SDS011;6424;48.520;11.228;2023-06-10T04:54:16;6.70;;;6.13;;
12719;SDS011;6424;48.520;11.228;2023-06-10T04:56:57;7.40;;;6.30;;
12719;SDS011;6424;48.520;11.228;2023-06-10T04:59:38;6.70;;;6.10;;
12719;SDS011;6424;48.520;11.228;2023-06-10T05:02:18;7.07;;;6.43;;
12719;SDS011;6424;48.520;11.228;2023-06-10T05:04:44;11.97;;;10.53;;
12719;SDS011;6424;48.520;11.228;2023-06-10T05:07:10;9.57;;;8.70;;
12719;SDS011;6424;48.520;11.228;2023-06-10T05:09:36;6.97;;;6.37;;
12719;SDS011;6424;48.520;11.228;2023-06-10T05:12:02;7.60;;;7.00;;
12719;SDS011;6424;48.520;11.228;2023-06-10T05:14:44;7.33;;;6.57;;
12719;SDS011;6424;48.520;11.228;2023-06-10T05:17:10;7.33;;;6.73;;
12719;SDS011;6424;48.520;11.228;2023-06-10T05:19:50;7.33;;;6.73;;
12719;SDS011;6424;48.520;11.228;2023-06-10T05:22:31;9.17;;;8.27;;
12719;SDS011;6424;48.520;11.228;2023-06-10T05:25:12;12.57;;;11.37;;
12719;SDS011;6424;48.520;11.228;2023-06-10T05:27:53;9.50;;;8.60;;
12719;SDS011;6424;48.520;11.228;2023-06-10T05:30:34;8.57;;;7.77;;
12719;SDS011;6424;48.520;11.228;2023-06-10T05:33:14;7.67;;;6.97;;
12719;SDS011;6424;48.520;11.228;2023-06-10T05:35:55;7.93;;;7.23;;
12719;SDS011;6424;48.520;11.228;2023-06-10T05:38:21;7.10;;;6.50;;
12719;SDS011;6424;48.520;11.228;2023-06-10T05:41:02;10.67;;;9.67;;
12719;SDS011;6424;48.520;11.228;2023-06-10T05:43:43;8.50;;;7.70;;
12719;SDS011;6424;48.520;11.228;2023-06-10T05:46:24;6.10;;;5.60;;
12719;SDS011;6424;48.520;11.228;2023-06-10T05:48:50;7.40;;;6.70;;
12719;SDS011;6424;48.520;11.228;2023-06-10T05:51:31;7.30;;;6.57;;
12719;SDS011;6424;48.520;11.228;2023-06-10T05:53:57;7.07;;;6.47;;
12719;SDS011;6424;48.520;11.228;2023-06-10T05:56:22;6.57;;;6.03;;
12719;SDS011;6424;48.520;11.228;2023-06-10T05:59:04;7.87;;;7.20;;
12719;SDS011;6424;48.520;11.228;2023-06-10T06:01:45;7.67;;;7.00;;
12719;SDS011;6424;48.520;11.228;2023-06-10T06:04:11;6.90;;;6.20;;
12719;SDS011;6424;48.520;11.228;2023-06-10T06:06:51;7.87;;;7.17;;
12719;SDS011;6424;48.520;11.228;2023-06-10T06:09:32;7.57;;;6.87;;
12719;SDS011;6424;48.520;11.228;2023-06-10T06:12:13;7.50;;;6.80;;
12719;SDS011;6424;48.520;11.228;2023-06-10T06:14:39;7.57;;;6.87;;
12719;SDS011;6424;48.520;11.228;2023-06-10T06:17:20;6.63;;;6.13;;
12719;SDS011;6424;48.520;11.228;2023-06-10T06:20:01;7.10;;;6.50;;
12719;SDS011;6424;48.520;11.228;2023-06-10T06:22:42;6.80;;;6.17;;
12719;SDS011;6424;48.520;11.228;2023-06-10T06:25:23;8.13;;;7.30;;
12719;SDS011;6424;48.520;11.228;2023-06-10T06:28:05;6.87;;;6.03;;
12719;SDS011;6424;48.520;11.228;2023-06-10T06:30:47;7.83;;;6.83;;
12719;SDS011;6424;48.520;11.228;2023-06-10T06:33:28;7.50;;;6.80;;
12719;SDS011;6424;48.520;11.228;2023-06-10T06:36:09;7.37;;;6.67;;
12719;SDS011;6424;48.520;11.228;2023-06-10T06:38:50;7.63;;;6.97;;
12719;SDS011;6424;48.520;11.228;2023-06-10T06:41:30;7.03;;;6.43;;
12719;SDS011;6424;48.520;11.228;2023-06-10T06:44:11;7.80;;;6.80;;
12719;SDS011;6424;48.520;11.228;2023-06-10T06:46:52;7.63;;;6.93;;
12719;SDS011;6424;48.520;11.228;2023-06-10T06:49:33;7.50;;;6.90;;
12719;SDS011;6424;48.520;11.228;2023-06-10T06:52:17;7.83;;;7.03;;
12719;SDS011;6424;48.520;11.228;2023-06-10T06:54:58;7.43;;;6.83;;
12719;SDS011;6424;48.520;11.228;2023-06-10T06:57:39;7.77;;;7.07;;
12719;SDS011;6424;48.520;11.228;2023-06-10T07:00:20;7.70;;;7.00;;
12719;SDS011;6424;48.520;11.228;2023-06-10T07:03:01;7.07;;;6.47;;
12719;SDS011;6424;48.520;11.228;2023-06-10T07:05:42;7.07;;;6.37;;
12719;SDS011;6424;48.520;11.228;2023-06-10T07:08:23;7.33;;;6.63;;
12719;SDS011;6424;48.520;11.228;2023-06-10T07:11:03;7.47;;;6.80;;
12719;SDS011;6424;48.520;11.228;2023-06-10T07:13:44;7.33;;;6.63;;
12719;SDS011;6424;48.520;11.228;2023-06-10T07:16:25;7.03;;;6.43;;
12719;SDS011;6424;48.520;11.228;2023-06-10T07:19:06;6.83;;;6.23;;
12719;SDS011;6424;48.520;11.228;2023-06-10T07:21:47;7.30;;;6.70;;
12719;SDS011;6424;48.520;11.228;2023-06-10T07:24:27;7.20;;;6.50;;
12719;SDS011;6424;48.520;11.228;2023-06-10T07:27:08;7.30;;;6.70;;
12719;SDS011;6424;48.520;11.228;2023-06-10T07:29:50;6.67;;;5.97;;
12719;SDS011;6424;48.520;11.228;2023-06-10T07:32:31;7.17;;;6.57;;
12719;SDS011;6424;48.520;11.228;2023-06-10T07:35:13;6.83;;;6.20;;
12719;SDS011;6424;48.520;11.228;2023-06-10T07:37:54;6.80;;;6.30;;
12719;SDS011;6424;48.520;11.228;2023-06-10T07:40:35;7.43;;;6.70;;
12719;SDS011;6424;48.520;11.228;2023-06-10T07:43:16;6.63;;;6.03;;
12719;SDS011;6424;48.520;11.228;2023-06-10T07:45:57;8.37;;;7.67;;
12719;SDS011;6424;48.520;11.228;2023-06-10T07:48:38;7.97;;;7.17;;
12719;SDS011;6424;48.520;11.228;2023-06-10T07:51:19;7.50;;;6.80;;
12719;SDS011;6424;48.520;11.228;2023-06-10T07:54:00;8.60;;;7.90;;
12719;SDS011;6424;48.520;11.228;2023-06-10T07:56:41;7.67;;;6.97;;
12719;SDS011;6424;48.520;11.228;2023-06-10T07:59:22;8.17;;;7.40;;
12719;SDS011;6424;48.520;11.228;2023-06-10T08:02:02;6.70;;;6.10;;
12719;SDS011;6424;48.520;11.228;2023-06-10T08:04:44;6.33;;;5.73;;
12719;SDS011;6424;48.520;11.228;2023-06-10T08:07:25;6.57;;;5.80;;
12719;SDS011;6424;48.520;11.228;2023-06-10T08:10:06;7.03;;;6.43;;
12719;SDS011;6424;48.520;11.228;2023-06-10T08:12:47;8.27;;;7.57;;
12719;SDS011;6424;48.520;11.228;2023-06-10T08:15:28;8.53;;;7.73;;
12719;SDS011;6424;48.520;11.228;2023-06-10T08:18:09;8.73;;;7.53;;
12719;SDS011;6424;48.520;11.228;2023-06-10T08:20:50;8.97;;;8.23;;
12719;SDS011;6424;48.520;11.228;2023-06-10T08:23:31;6.40;;;5.83;;
12719;SDS011;6424;48.520;11.228;2023-06-10T08:26:11;7.40;;;6.77;;
12719;SDS011;6424;48.520;11.228;2023-06-10T08:28:37;6.10;;;5.50;;
12719;SDS011;6424;48.520;11.228;2023-06-10T08:31:18;6.37;;;5.87;;
12719;SDS011;6424;48.520;11.228;2023-06-10T08:33:59;6.10;;;5.50;;
12719;SDS011;6424;48.520;11.228;2023-06-10T08:36:39;5.90;;;5.27;;
12719;SDS011;6424;48.520;11.228;2023-06-10T08:39:21;6.67;;;6.07;;
12719;SDS011;6424;48.520;11.228;2023-06-10T08:44:58;7.20;;;5.73;;
12719;SDS011;6424;48.520;11.228;2023-06-10T08:47:43;6.03;;;5.57;;
12719;SDS011;6424;48.520;11.228;2023-06-10T08:50:26;5.73;;;5.23;;
12719;SDS011;6424;48.520;11.228;2023-06-10T08:53:09;5.90;;;5.40;;
12719;SDS011;6424;48.520;11.228;2023-06-10T08:55:54;5.60;;;5.10;;
12719;SDS011;6424;48.520;11.228;2023-06-10T08:58:40;5.87;;;5.27;;
12719;SDS011;6424;48.520;11.228;2023-06-10T09:01:22;13.13;;;6.33;;
12719;SDS011;6424;48.520;11.228;2023-06-10T09:04:05;11.13;;;7.13;;
12719;SDS011;6424;48.520;11.228;2023-06-10T09:06:32;6.07;;;5.50;;
12719;SDS011;6424;48.520;11.228;2023-06-10T09:09:14;7.03;;;5.40;;
12719;SDS011;6424;48.520;11.228;2023-06-10T09:11:55;5.87;;;4.70;;
12719;SDS011;6424;48.520;11.228;2023-06-10T09:14:36;5.93;;;5.17;;
12719;SDS011;6424;48.520;11.228;2023-06-10T09:17:17;6.00;;;5.40;;
12719;SDS011;6424;48.520;11.228;2023-06-10T09:19:59;5.97;;;5.37;;
12719;SDS011;6424;48.520;11.228;2023-06-10T09:22:41;5.90;;;5.30;;
12719;SDS011;6424;48.520;11.228;2023-06-10T09:25:08;5.27;;;4.87;;
12719;SDS011;6424;48.520;11.228;2023-06-10T09:27:51;5.57;;;5.13;;
12719;SDS011;6424;48.520;11.228;2023-06-10T09:30:36;5.13;;;4.73;;
12719;SDS011;6424;48.520;11.228;2023-06-10T09:33:16;5.10;;;4.70;;
12719;SDS011;6424;48.520;11.228;2023-06-10T09:35:57;5.93;;;5.43;;
12719;SDS011;6424;48.520;11.228;2023-06-10T09:38:41;6.50;;;5.87;;
12719;SDS011;6424;48.520;11.228;2023-06-10T09:41:22;5.80;;;5.30;;
12719;SDS011;6424;48.520;11.228;2023-06-10T09:43:58;5.87;;;5.37;;
12719;SDS011;6424;48.520;11.228;2023-06-10T09:46:38;6.10;;;5.60;;
12719;SDS011;6424;48.520;11.228;2023-06-10T09:49:19;6.10;;;5.53;;
12719;SDS011;6424;48.520;11.228;2023-06-10T09:52:00;5.40;;;4.90;;
12719;SDS011;6424;48.520;11.228;2023-06-10T09:54:45;5.83;;;5.43;;
12719;SDS011;6424;48.520;11.228;2023-06-10T09:57:26;6.20;;;5.70;;
12719;SDS011;6424;48.520;11.228;2023-06-10T10:00:11;7.17;;;5.47;;
12719;SDS011;6424;48.520;11.228;2023-06-10T10:02:52;5.60;;;5.10;;
12719;SDS011;6424;48.520;11.228;2023-06-10T10:05:33;5.17;;;4.77;;
12719;SDS011;6424;48.520;11.228;2023-06-10T10:07:59;5.43;;;5.03;;
12719;SDS011;6424;48.520;11.228;2023-06-10T10:10:40;5.27;;;4.87;;
12719;SDS011;6424;48.520;11.228;2023-06-10T10:13:21;5.30;;;4.90;;
12719;SDS011;6424;48.520;11.228;2023-06-10T10:16:12;6.30;;;5.37;;
12719;SDS011;6424;48.520;11.228;2023-06-10T10:18:59;5.13;;;4.70;;
12719;SDS011;6424;48.520;11.228;2023-06-10T10:21:52;6.03;;;5.43;;
12719;SDS011;6424;48.520;11.228;2023-06-10T10:24:35;6.10;;;5.37;;
12719;SDS011;6424;48.520;11.228;2023-06-10T10:27:28;6.17;;;5.63;;
12719;SDS011;6424;48.520;11.228;2023-06-10T10:30:16;5.80;;;5.30;;
12719;SDS011;6424;48.520;11.228;2023-06-10T10:32:58;5.83;;;5.33;;
12719;SDS011;6424;48.520;11.228;2023-06-10T10:35:49;5.50;;;5.00;;
12719;SDS011;6424;48.520;11.228;2023-06-10T10:38:16;5.80;;;5.40;;
12719;SDS011;6424;48.520;11.228;2023-06-10T10:40:57;5.50;;;5.10;;
12719;SDS011;6424;48.520;11.228;2023-06-10T10:43:41;5.57;;;5.07;;
12719;SDS011;6424;48.520;11.228;2023-06-10T10:46:23;5.50;;;5.10;;
12719;SDS011;6424;48.520;11.228;2023-06-10T10:49:04;5.90;;;5.40;;
12719;SDS011;6424;48.520;11.228;2023-06-10T10:51:59;6.23;;;5.50;;
12719;SDS011;6424;48.520;11.228;2023-06-10T10:54:45;7.43;;;5.13;;
12719;SDS011;6424;48.520;11.228;2023-06-10T10:57:28;5.33;;;4.77;;
12719;SDS011;6424;48.520;11.228;2023-06-10T11:00:10;5.10;;;4.70;;
12719;SDS011;6424;48.520;11.228;2023-06-10T11:02:51;4.97;;;4.47;;
12719;SDS011;6424;48.520;11.228;2023-06-10T11:11:25;5.70;;;5.20;;
12719;SDS011;6424;48.520;11.228;2023-06-10T11:14:08;5.33;;;4.83;;
12719;SDS011;6424;48.520;11.228;2023-06-10T11:16:41;5.80;;;5.10;;
12719;SDS011;6424;48.520;11.228;2023-06-10T11:19:36;5.80;;;5.30;;
12719;SDS011;6424;48.520;11.228;2023-06-10T11:22:18;5.70;;;5.17;;
12719;SDS011;6424;48.520;11.228;2023-06-10T11:24:59;5.13;;;4.73;;
12719;SDS011;6424;48.520;11.228;2023-06-10T11:27:40;5.67;;;5.17;;
12719;SDS011;6424;48.520;11.228;2023-06-10T11:30:21;6.03;;;5.53;;
12719;SDS011;6424;48.520;11.228;2023-06-10T11:33:06;6.57;;;5.53;;
12719;SDS011;6424;48.520;11.228;2023-06-10T11:35:47;6.20;;;5.50;;
12719;SDS011;6424;48.520;11.228;2023-06-10T11:38:13;6.07;;;5.50;;
12719;SDS011;6424;48.520;11.228;2023-06-10T11:40:54;6.00;;;5.50;;
12719;SDS011;6424;48.520;11.228;2023-06-10T11:43:36;7.30;;;5.93;;
12719;SDS011;6424;48.520;11.228;2023-06-10T11:46:20;5.87;;;5.33;;
12719;SDS011;6424;48.520;11.228;2023-06-10T11:49:02;5.70;;;5.20;;
12719;SDS011;6424;48.520;11.228;2023-06-10T11:51:43;6.23;;;5.67;;
12719;SDS011;6424;48.520;11.228;2023-06-10T11:54:14;5.40;;;4.87;;
12719;SDS011;6424;48.520;11.228;2023-06-10T11:56:59;5.70;;;5.23;;
12719;SDS011;6424;48.520;11.228;2023-06-10T11:59:40;5.70;;;5.20;;
12719;SDS011;6424;48.520;11.228;2023-06-10T12:02:21;5.70;;;5.20;;
12719;SDS011;6424;48.520;11.228;2023-06-10T12:05:14;5.70;;;5.30;;
12719;SDS011;6424;48.520;11.228;2023-06-10T12:08:13;5.10;;;4.70;;
12719;SDS011;6424;48.520;11.228;2023-06-10T12:10:55;5.00;;;4.60;;
12719;SDS011;6424;48.520;11.228;2023-06-10T12:13:36;5.37;;;4.87;;
12719;SDS011;6424;48.520;11.228;2023-06-10T12:16:17;6.33;;;4.97;;
12719;SDS011;6424;48.520;11.228;2023-06-10T12:19:02;5.10;;;4.70;;
12719;SDS011;6424;48.520;11.228;2023-06-10T12:21:44;5.40;;;4.93;;
12719;SDS011;6424;48.520;11.228;2023-06-10T12:24:10;5.57;;;5.07;;
12719;SDS011;6424;48.520;11.228;2023-06-10T12:26:53;6.10;;;5.60;;
12719;SDS011;6424;48.520;11.228;2023-06-10T12:29:35;6.97;;;5.50;;
12719;SDS011;6424;48.520;11.228;2023-06-10T12:32:16;5.33;;;4.93;;
12719;SDS011;6424;48.520;11.228;2023-06-10T12:35:04;5.43;;;5.00;;
12719;SDS011;6424;48.520;11.228;2023-06-10T12:37:30;5.70;;;5.20;;
12719;SDS011;6424;48.520;11.228;2023-06-10T12:40:14;5.30;;;4.90;;
12719;SDS011;6424;48.520;11.228;2023-06-10T12:42:55;5.67;;;5.17;;
12719;SDS011;6424;48.520;11.228;2023-06-10T12:45:37;6.40;;;4.73;;
12719;SDS011;6424;48.520;11.228;2023-06-10T12:48:24;5.03;;;4.53;;
12719;SDS011;6424;48.520;11.228;2023-06-10T12:51:05;4.53;;;4.13;;
12719;SDS011;6424;48.520;11.228;2023-06-10T12:53:46;4.87;;;4.47;;
12719;SDS011;6424;48.520;11.228;2023-06-10T12:56:27;5.00;;;4.60;;
12719;SDS011;6424;48.520;11.228;2023-06-10T12:59:07;4.33;;;3.97;;
12719;SDS011;6424;48.520;11.228;2023-06-10T13:01:51;4.70;;;4.30;;
12719;SDS011;6424;48.520;11.228;2023-06-10T13:04:32;4.13;;;3.63;;
12719;SDS011;6424;48.520;11.228;2023-06-10T13:07:13;5.07;;;4.13;;
12719;SDS011;6424;48.520;11.228;2023-06-10T13:09:54;4.47;;;4.17;;
12719;SDS011;6424;48.520;11.228;2023-06-10T13:12:20;6.43;;;4.90;;
12719;SDS011;6424;48.520;11.228;2023-06-10T13:15:01;5.00;;;4.60;;
12719;SDS011;6424;48.520;11.228;2023-06-10T13:17:44;5.77;;;5.17;;
12719;SDS011;6424;48.520;11.228;2023-06-10T13:20:29;5.30;;;4.90;;
12719;SDS011;6424;48.520;11.228;2023-06-10T13:23:10;4.87;;;4.47;;
12719;SDS011;6424;48.520;11.228;2023-06-10T13:25:50;4.83;;;4.33;;
12719;SDS011;6424;48.520;11.228;2023-06-10T13:28:31;4.80;;;4.40;;
12719;SDS011;6424;48.520;11.228;2023-06-10T13:31:12;4.90;;;4.50;;
12719;SDS011;6424;48.520;11.228;2023-06-10T13:33:53;4.43;;;4.13;;
12719;SDS011;6424;48.520;11.228;2023-06-10T13:36:34;5.00;;;4.50;;
12719;SDS011;6424;48.520;11.228;2023-06-10T13:39:15;4.80;;;4.40;;
12719;SDS011;6424;48.520;11.228;2023-06-10T13:41:55;5.63;;;4.60;;
12719;SDS011;6424;48.520;11.228;2023-06-10T13:44:36;4.40;;;4.00;;
12719;SDS011;6424;48.520;11.228;2023-06-10T13:47:17;4.93;;;4.27;;
12719;SDS011;6424;48.520;11.228;2023-06-10T13:49:43;4.43;;;4.03;;
12719;SDS011;6424;48.520;11.228;2023-06-10T13:52:24;4.60;;;4.20;;
12719;SDS011;6424;48.520;11.228;2023-06-10T13:55:05;4.30;;;3.90;;
12719;SDS011;6424;48.520;11.228;2023-06-10T13:57:46;4.27;;;3.47;;
12719;SDS011;6424;48.520;11.228;2023-06-10T14:00:12;4.90;;;3.70;;
12719;SDS011;6424;48.520;11.228;2023-06-10T14:02:53;3.00;;;2.80;;
12719;SDS011;6424;48.520;11.228;2023-06-10T14:05:34;3.23;;;2.97;;
12719;SDS011;6424;48.520;11.228;2023-06-10T14:08:14;3.07;;;2.70;;
12719;SDS011;6424;48.520;11.228;2023-06-10T14:10:40;3.80;;;2.90;;
12719;SDS011;6424;48.520;11.228;2023-06-10T14:13:21;4.53;;;3.60;;
12719;SDS011;6424;48.520;11.228;2023-06-10T14:16:02;3.97;;;3.67;;
12719;SDS011;6424;48.520;11.228;2023-06-10T14:18:43;5.57;;;3.87;;
12719;SDS011;6424;48.520;11.228;2023-06-10T14:21:24;4.03;;;3.70;;
12719;SDS011;6424;48.520;11.228;2023-06-10T14:24:05;3.77;;;3.47;;
12719;SDS011;6424;48.520;11.228;2023-06-10T14:26:46;4.77;;;4.33;;
12719;SDS011;6424;48.520;11.228;2023-06-10T14:29:27;5.63;;;4.23;;
12719;SDS011;6424;48.520;11.228;2023-06-10T14:32:09;4.83;;;4.33;;
12719;SDS011;6424;48.520;11.228;2023-06-10T14:34:49;4.70;;;4.30;;
12719;SDS011;6424;48.520;11.228;2023-06-10T14:37:30;4.87;;;4.23;;
12719;SDS011;6424;48.520;11.228;2023-06-10T14:40:11;5.17;;;4.70;;
12719;SDS011;6424;48.520;11.228;2023-06-10T14:42:37;5.20;;;4.70;;
12719;SDS011;6424;48.520;11.228;2023-06-10T14:45:17;4.80;;;4.40;;
12719;SDS011;6424;48.520;11.228;2023-06-10T14:47:58;5.03;;;4.37;;
12719;SDS011;6424;48.520;11.228;2023-06-10T14:50:39;5.07;;;4.57;;
12719;SDS011;6424;48.520;11.228;2023-06-10T14:53:22;4.77;;;4.33;;
12719;SDS011;6424;48.520;11.228;2023-06-10T14:56:02;4.73;;;3.90;;
12719;SDS011;6424;48.520;11.228;2023-06-10T14:58:44;5.33;;;4.33;;
12719;SDS011;6424;48.520;11.228;2023-06-10T15:01:24;4.47;;;3.83;;
12719;SDS011;6424;48.520;11.228;2023-06-10T15:04:05;3.90;;;3.57;;
12719;SDS011;6424;48.520;11.228;2023-06-10T15:06:46;4.47;;;4.13;;
12719;SDS011;6424;48.520;11.228;2023-06-10T15:09:28;4.53;;;4.20;;
12719;SDS011;6424;48.520;11.228;2023-06-10T15:11:54;4.50;;;4.20;;
12719;SDS011;6424;48.520;11.228;2023-06-10T15:14:35;4.87;;;4.40;;
12719;SDS011;6424;48.520;11.228;2023-06-10T15:17:16;4.57;;;4.00;;
12719;SDS011;6424;48.520;11.228;2023-06-10T15:19:57;4.57;;;4.10;;
12719;SDS011;6424;48.520;11.228;2023-06-10T15:22:37;4.33;;;3.90;;
12719;SDS011;6424;48.520;11.228;2023-06-10T15:25:18;4.60;;;4.30;;
12719;SDS011;6424;48.520;11.228;2023-06-10T15:27:59;5.33;;;3.80;;
12719;SDS011;6424;48.520;11.228;2023-06-10T15:30:40;4.20;;;3.80;;
12719;SDS011;6424;48.520;11.228;2023-06-10T15:33:20;4.37;;;4.03;;
12719;SDS011;6424;48.520;11.228;2023-06-10T15:36:01;5.47;;;4.97;;
12719;SDS011;6424;48.520;11.228;2023-06-10T15:38:42;4.93;;;4.43;;
12719;SDS011;6424;48.520;11.228;2023-06-10T15:41:08;4.23;;;3.83;;
12719;SDS011;6424;48.520;11.228;2023-06-10T15:43:49;5.10;;;4.70;;
12719;SDS011;6424;48.520;11.228;2023-06-10T15:46:30;4.60;;;4.20;;
12719;SDS011;6424;48.520;11.228;2023-06-10T15:49:10;4.20;;;3.90;;
12719;SDS011;6424;48.520;11.228;2023-06-10T15:51:51;4.13;;;3.83;;
12719;SDS011;6424;48.520;11.228;2023-06-10T15:54:32;4.53;;;4.13;;
12719;SDS011;6424;48.520;11.228;2023-06-10T15:57:13;4.57;;;4.00;;
12719;SDS011;6424;48.520;11.228;2023-06-10T15:59:54;5.33;;;4.47;;
12719;SDS011;6424;48.520;11.228;2023-06-10T16:02:35;4.43;;;4.13;;
12719;SDS011;6424;48.520;11.228;2023-06-10T16:05:15;4.70;;;4.30;;
12719;SDS011;6424;48.520;11.228;2023-06-10T16:07:56;5.17;;;4.67;;
12719;SDS011;6424;48.520;11.228;2023-06-10T16:10:38;4.30;;;3.90;;
12719;SDS011;6424;48.520;11.228;2023-06-10T16:13:03;4.37;;;4.07;;
12719;SDS011;6424;48.520;11.228;2023-06-10T16:15:44;4.53;;;4.10;;
12719;SDS011;6424;48.520;11.228;2023-06-10T16:18:25;4.87;;;4.40;;
12719;SDS011;6424;48.520;11.228;2023-06-10T16:21:06;4.57;;;4.03;;